25 de Mayo, Argentina
Current Conditions -  °F | °C
As of 3:00 PM on Thursday 27 Nov 2014 (Local Time) from SAME Reporting Station
Clear Clear  
Wind Chill: 91°   Ceiling: Unl
Heat Index: 91°   Visibility: 6mi
Dew Point: 39°   Wind: 14mph
Humidity: 16%   Direction: 360°N
Pressure: 29.77"   Gusts: NA
Location:  34.58°S, 68.55°W
Report Text: SAME 271800Z 36012KT CAVOK 33/04 Q1008
Loading
Personal Weather Stations






























Interactive Weather Map New forecast layout! Learn more

10-Day Weather Forecast

Advertisements
Track Severe Weather on mobile